Bucyrus, OH

3:59 PM EDT on August 30, 2015 (GMT -0400)
Brandywine Creek | | Change Station
CLOSE
Current Station
Personal Weather Station
Location: Bucyrus, OH
Elevation: 997 ft
Nearby Weather Stations

Elev 997 ft 40.86 °N, 82.96 °W | Updated 8 minutes ago

Clear
Clear
84.9 °F
Feels Like 97 °F
N
8.9
Wind Variable Wind from SW

Today
High -- | Low -- °F
--% Chance of Precip.
Yesterday
High -- | Low -- °F
Precip. -- in
6:56 AM 8:07 PM
Full, 98% visible
Pressure 30.04 in
Visibility 8.0 miles
Clouds Few 3600 ft
Scattered Clouds 4700 ft
Heat Index 97 °F
Dew Point 79 °F
Humidity 82%
Rainfall 0.00 in
Snow Depth Not available.
UV 5 out of 12
Pollen 9.30 out of 12
Air Quality Not available.
Flu Activity Not available.
METAR KMNN 301953Z AUTO 20006KT 8SM FEW036 SCT047 29/19 A3006 RMK AO2 SLP173 T02890194 TSNO
Pressure 30.04 in
Visibility 8.0 miles
Clouds Few 3600 ft
Scattered Clouds 4700 ft
Heat Index 97 °F
Dew Point 79 °F
Humidity 82%
Rainfall 0.00 in
Snow Depth Not available.
UV 5 out of 12
Pollen 9.30 out of 12
Air Quality Not available.
Flu Activity Not available.
METAR KMNN 301953Z AUTO 20006KT 8SM FEW036 SCT047 29/19 A3006 RMK AO2 SLP173 T02890194 TSNO

10-Day Weather Forecast

×

Almanac

Astronomy

Aug. 30, 2015 Rise Set
Actual Time
Civil Twilight
Nautical Twilight
Astronomical Twilight
Moon
Length of Visible Light
Length of Day
Tomorrow will be .
, % of the Moon is Illuminated

Today's Extremes

State Highs State Lows

Community

WunderPhotos

Upload Photos

1,851,041 photos uploaded!

WunderBlogs® & News

Nearby

Air Quality

  Air Quality AQ Index Pollutant
Not available.

Snow Depth

Station Depth Elevation

Earthquake Activity

City Distance Mag. Time & Date
Minimum magnitude displayed is 2.5.

Coastal Water Temperatures

Place Temperature

Stations

Nearby Weather Stations

Station Location Temp. Windchill Dew Point Humidity Wind Precip. Elev Updated Type